Time;durP1;ratioP1;P1;durP2;ratioP2;P2;SDS_P1;SDS_P2;PMS_P1;PMS_P2;Temp;Humidity;BMP_temperature;BMP_pressure;BME280_temperature;BME280_humidity;BME280_pressure;Samples;Min_cycle;Max_cycle;Signal;HPM_P1;HPM_P2
2021/08/08 00:00:18;;;;;;;;;;;;;;;29.73;36.46;96796.59;5070635;28;1422;-57
2021/08/08 00:02:43;;;;;;;;;;;;;;;29.87;36.38;96795.13;5073028;28;1164;-56
2021/08/08 00:05:09;;;;;;;;;;;;;;;29.67;36.77;96794.59;5069702;28;1971;-58
2021/08/08 00:07:34;;;;;;;;;;;;;;;29.77;36.65;96798.91;5073232;28;981;-57
2021/08/08 00:09:59;;;;;;;;;;;;;;;29.63;36.70;96795.94;5070245;28;1222;-55
2021/08/08 00:12:24;;;;;;;;;;;;;;;29.82;36.40;96791.28;5069309;28;1542;-58
2021/08/08 00:14:49;;;;;;;;;;;;;;;29.85;36.55;96806.88;5071100;28;1275;-58
2021/08/08 00:17:15;;;;;;;;;;;;;;;29.77;36.48;96813.03;5071671;28;1401;-56
2021/08/08 00:19:40;;;;;;;;;;;;;;;29.75;36.62;96807.88;5070284;28;1578;-58
2021/08/08 00:22:05;;;;;;;;;;;;;;;29.59;37.11;96804.41;5069873;28;955;-56
2021/08/08 00:24:30;;;;;;;;;;;;;;;29.85;36.38;96804.22;5071985;28;1902;-57
2021/08/08 00:26:56;;;;;;;;;;;;;;;29.80;36.52;96804.75;5070664;28;1705;-57
2021/08/08 00:29:21;;;;;;;;;;;;;;;29.74;36.68;96808.06;5069720;28;1021;-56
2021/08/08 00:31:46;;;;;;;;;;;;;;;29.74;36.64;96814.22;5070505;28;1242;-56
2021/08/08 00:34:11;;;;;;;;;;;;;;;29.84;36.11;96818.53;5072375;28;1232;-55
2021/08/08 00:36:36;;;;;;;;;;;;;;;29.60;37.07;96814.03;5066797;28;1587;-56
2021/08/08 00:39:02;;;;;;;;;;;;;;;29.83;36.46;96819.53;5069872;28;1321;-55
2021/08/08 00:41:27;;;;;;;;;;;;;;;29.67;36.90;96810.53;5069456;28;1555;-56
2021/08/08 00:43:53;;;;;;;;;;;;;;;29.70;36.63;96814.69;5067923;28;1911;-55
2021/08/08 00:46:18;;;;;;;;;;;;;;;29.82;36.46;96812.56;5069636;28;1200;-57
2021/08/08 00:48:43;;;;;;;;;;;;;;;29.77;36.43;96815.69;5068992;28;1745;-56
2021/08/08 00:51:08;;;;;;;;;;;;;;;29.69;36.61;96805.88;5067703;28;1133;-58
2021/08/08 00:53:34;;;;;;;;;;;;;;;29.84;36.64;96810.56;5071006;28;1222;-57
2021/08/08 00:55:59;;;;;;;;;;;;;;;29.74;36.78;96818.69;5064741;28;1563;-56
2021/08/08 00:58:26;;;;;;;;;;;;;;;29.72;36.45;96824.19;5068118;28;1203;-57
2021/08/08 01:00:52;;;;;;;;;;;;;;;29.83;36.41;96816.88;5062381;28;1331;-58
2021/08/08 01:03:17;;;;;;;;;;;;;;;29.72;36.48;96810.88;5062372;28;1259;-56
2021/08/08 01:05:50;;;;;;;;;;;;;;;29.77;36.53;96812.22;5057136;28;1906;-56
2021/08/08 01:08:17;;;;;;;;;;;;;;;29.72;36.38;96818.03;5064026;28;1548;-58
2021/08/08 01:10:42;;;;;;;;;;;;;;;29.69;36.59;96813.84;5058694;28;1184;-57
2021/08/08 01:13:08;;;;;;;;;;;;;;;29.69;36.83;96811.19;5066921;28;1847;-57
2021/08/08 01:15:33;;;;;;;;;;;;;;;29.72;36.61;96818.03;5072843;22;3604;-52
2021/08/08 01:17:58;;;;;;;;;;;;;;;29.79;36.55;96808.41;5053993;28;1640;-54
2021/08/08 01:20:23;;;;;;;;;;;;;;;29.82;36.43;96824.00;5071295;28;1108;-54
2021/08/08 01:22:52;;;;;;;;;;;;;;;29.64;36.61;96813.53;5060411;28;1120;-54
2021/08/08 01:25:17;;;;;;;;;;;;;;;29.73;36.36;96807.22;5059551;28;1922;-54
2021/08/08 01:27:42;;;;;;;;;;;;;;;29.54;36.89;96798.72;5057702;28;1578;-53
2021/08/08 01:30:08;;;;;;;;;;;;;;;29.74;36.53;96811.56;5061448;28;1180;-53
2021/08/08 01:32:33;;;;;;;;;;;;;;;29.80;36.35;96807.41;5071048;28;1237;-53
2021/08/08 01:34:59;;;;;;;;;;;;;;;29.69;36.71;96792.59;5071682;28;1316;-55
2021/08/08 01:37:24;;;;;;;;;;;;;;;29.87;36.29;96786.31;5069070;28;1600;-54
2021/08/08 01:39:54;;;;;;;;;;;;;;;29.63;36.48;96773.84;5070401;28;1489;-55
2021/08/08 01:42:19;;;;;;;;;;;;;;;29.65;36.79;96767.38;5059677;28;1660;-53
2021/08/08 01:44:49;;;;;;;;;;;;;;;29.64;36.83;96765.72;5070704;28;1909;-54
2021/08/08 01:47:14;;;;;;;;;;;;;;;29.78;36.39;96769.50;5061664;28;1363;-53
2021/08/08 01:49:41;;;;;;;;;;;;;;;29.79;36.40;96775.69;5061594;28;1603;-54
2021/08/08 01:52:06;;;;;;;;;;;;;;;29.69;36.76;96768.69;5060738;28;1167;-53
2021/08/08 01:54:32;;;;;;;;;;;;;;;29.73;36.57;96775.34;5061332;28;1626;-55
2021/08/08 01:56:57;;;;;;;;;;;;;;;29.65;36.71;96783.31;5058820;28;1565;-53
2021/08/08 01:59:22;;;;;;;;;;;;;;;29.66;36.72;96797.44;5070977;28;1237;-54
2021/08/08 02:01:47;;;;;;;;;;;;;;;29.82;36.54;96801.91;5061751;28;1084;-54
2021/08/08 02:04:25;;;;;;;;;;;;;;;29.72;36.41;96794.94;5067519;28;1967;-56
2021/08/08 02:06:50;;;;;;;;;;;;;;;29.77;36.41;96805.06;5070522;28;1212;-54
2021/08/08 02:09:16;;;;;;;;;;;;;;;29.79;36.43;96815.56;5069725;28;1585;-54
2021/08/08 02:11:41;;;;;;;;;;;;;;;29.71;36.70;96814.53;5069507;28;1643;-54
2021/08/08 02:14:06;;;;;;;;;;;;;;;29.67;36.62;96809.72;5069465;28;1167;-54
2021/08/08 02:16:31;;;;;;;;;;;;;;;29.62;36.71;96790.75;5070770;28;1283;-54
2021/08/08 02:18:57;;;;;;;;;;;;;;;29.82;36.25;96805.41;5069769;28;1215;-54
2021/08/08 02:21:22;;;;;;;;;;;;;;;29.74;36.44;96787.63;5064525;28;1564;-53
2021/08/08 02:23:47;;;;;;;;;;;;;;;29.80;36.57;96795.94;5069813;28;1965;-54
2021/08/08 02:26:12;;;;;;;;;;;;;;;29.78;36.40;96811.22;5070180;28;1560;-54
2021/08/08 02:28:37;;;;;;;;;;;;;;;29.89;36.35;96809.06;5036362;28;1533;-51
2021/08/08 02:31:03;;;;;;;;;;;;;;;29.94;35.99;96808.53;5045606;28;1119;-54
2021/08/08 02:33:28;;;;;;;;;;;;;;;29.72;36.35;96796.78;5069466;28;1168;-54
2021/08/08 02:35:53;;;;;;;;;;;;;;;29.74;36.47;96816.88;5070492;28;1279;-55
2021/08/08 02:38:18;;;;;;;;;;;;;;;29.77;36.41;96817.53;5067777;28;1759;-54
2021/08/08 02:40:43;;;;;;;;;;;;;;;29.62;36.84;96828.78;5069980;28;1219;-54
2021/08/08 02:43:09;;;;;;;;;;;;;;;29.62;36.67;96835.94;5067662;28;1580;-54
2021/08/08 02:45:34;;;;;;;;;;;;;;;29.72;36.64;96849.94;5070090;28;1905;-53
2021/08/08 02:47:59;;;;;;;;;;;;;;;29.79;36.28;96852.75;5069852;28;1194;-55
2021/08/08 02:50:24;;;;;;;;;;;;;;;29.85;36.25;96858.22;5067183;28;1569;-54
2021/08/08 02:52:53;;;;;;;;;;;;;;;29.69;36.65;96856.38;5068439;28;1131;-54
2021/08/08 02:55:18;;;;;;;;;;;;;;;29.68;36.43;96860.03;5069582;28;1271;-54
2021/08/08 02:57:43;;;;;;;;;;;;;;;29.77;36.46;96878.66;5068763;28;1614;-53
2021/08/08 03:00:09;;;;;;;;;;;;;;;29.71;36.52;96883.66;5069474;28;1416;-54
2021/08/08 03:02:34;;;;;;;;;;;;;;;29.80;36.49;96894.28;5069260;28;1064;-54
2021/08/08 03:04:59;;;;;;;;;;;;;;;29.77;36.46;96900.75;5068182;28;1918;-54
2021/08/08 03:07:24;;;;;;;;;;;;;;;29.64;36.46;96895.09;5069938;28;1240;-54
2021/08/08 03:09:50;;;;;;;;;;;;;;;29.73;36.41;96920.69;5070009;28;1160;-54
2021/08/08 03:12:15;;;;;;;;;;;;;;;29.74;36.47;96917.03;5067951;28;1493;-53
2021/08/08 03:14:40;;;;;;;;;;;;;;;29.79;36.38;96917.38;5067137;28;1576;-56
2021/08/08 03:17:05;;;;;;;;;;;;;;;29.62;36.71;96913.00;5070030;28;993;-53
2021/08/08 03:19:30;;;;;;;;;;;;;;;29.74;36.31;96917.84;5069213;28;1226;-55
2021/08/08 03:21:55;;;;;;;;;;;;;;;29.78;36.40;96920.19;5067025;28;1618;-54
2021/08/08 03:24:21;;;;;;;;;;;;;;;29.69;36.42;96917.50;5067225;28;1902;-54
2021/08/08 03:26:46;;;;;;;;;;;;;;;29.68;36.59;96913.19;5066994;28;1524;-53
2021/08/08 03:29:11;;;;;;;;;;;;;;;29.63;36.68;96920.84;5070903;28;1222;-53
2021/08/08 03:31:37;;;;;;;;;;;;;;;29.80;36.47;96923.53;5069826;28;1191;-53
2021/08/08 03:34:02;;;;;;;;;;;;;;;29.60;36.68;96923.78;5070881;28;1525;-53
2021/08/08 03:36:27;;;;;;;;;;;;;;;29.70;36.37;96921.00;5073983;28;1286;-53
2021/08/08 03:38:53;;;;;;;;;;;;;;;29.62;36.68;96919.13;5071613;28;1407;-52
2021/08/08 03:41:18;;;;;;;;;;;;;;;29.69;36.38;96920.16;5072066;28;1639;-52
2021/08/08 03:43:43;;;;;;;;;;;;;;;29.71;36.54;96922.69;5072941;28;1273;-54
2021/08/08 03:46:08;;;;;;;;;;;;;;;29.69;36.43;96930.78;5072259;28;1965;-54
2021/08/08 03:48:33;;;;;;;;;;;;;;;29.77;36.50;96929.16;5072943;28;1239;-52
2021/08/08 03:50:59;;;;;;;;;;;;;;;29.67;36.64;96930.13;5072690;28;1592;-53
2021/08/08 03:53:24;;;;;;;;;;;;;;;29.64;36.59;96930.47;5073265;28;1168;-53
2021/08/08 03:55:49;;;;;;;;;;;;;;;29.62;36.67;96950.19;5071364;28;1510;-53
2021/08/08 03:58:14;;;;;;;;;;;;;;;29.73;36.55;96956.06;5072924;28;1821;-52
2021/08/08 04:00:39;;;;;;;;;;;;;;;29.67;36.49;96962.03;5070293;28;1490;-53
2021/08/08 04:03:05;;;;;;;;;;;;;;;29.56;36.77;96966.81;5072308;28;1230;-53
2021/08/08 04:05:31;;;;;;;;;;;;;;;29.61;36.72;96965.31;5072342;28;1906;-53
2021/08/08 04:07:56;;;;;;;;;;;;;;;29.75;36.24;96962.03;5071542;28;1617;-53
2021/08/08 04:10:21;;;;;;;;;;;;;;;29.74;36.23;96971.00;5070410;28;1422;-53
2021/08/08 04:12:46;;;;;;;;;;;;;;;29.69;36.30;96961.84;5071386;28;1529;-54
2021/08/08 04:15:12;;;;;;;;;;;;;;;29.65;36.39;96964.00;5071740;28;1375;-52
2021/08/08 04:17:37;;;;;;;;;;;;;;;29.76;36.49;96973.50;5073243;28;1171;-53
2021/08/08 04:20:02;;;;;;;;;;;;;;;29.81;36.26;96973.03;5069504;28;1675;-53
2021/08/08 04:22:27;;;;;;;;;;;;;;;29.72;36.46;96977.50;5072800;28;1214;-54
2021/08/08 04:24:52;;;;;;;;;;;;;;;29.74;36.32;96984.31;5071120;28;1910;-52
2021/08/08 04:27:18;;;;;;;;;;;;;;;29.66;36.51;96981.63;5069603;28;1636;-53
2021/08/08 04:29:44;;;;;;;;;;;;;;;29.68;36.45;96976.97;5070331;28;1041;-50
2021/08/08 04:32:09;;;;;;;;;;;;;;;29.71;36.41;96981.97;5071539;28;1238;-52
2021/08/08 04:34:34;;;;;;;;;;;;;;;29.65;36.47;96982.63;5072455;28;1340;-53
2021/08/08 04:36:59;;;;;;;;;;;;;;;29.68;36.39;96986.78;5070579;28;1867;-52
2021/08/08 04:39:25;;;;;;;;;;;;;;;29.72;36.36;96991.63;5072680;28;1214;-53
2021/08/08 04:41:52;;;;;;;;;;;;;;;29.70;36.22;96982.13;5071460;28;1619;-52
2021/08/08 04:44:17;;;;;;;;;;;;;;;29.61;36.67;96993.72;5072335;28;1929;-53
2021/08/08 04:46:42;;;;;;;;;;;;;;;29.54;36.64;96995.34;5071492;28;1287;-53
2021/08/08 04:49:07;;;;;;;;;;;;;;;29.66;36.26;97000.22;5073444;28;1226;-52
2021/08/08 04:51:32;;;;;;;;;;;;;;;29.75;36.29;97003.75;5070673;28;1568;-52
2021/08/08 04:53:58;;;;;;;;;;;;;;;29.67;36.26;97003.72;5071805;28;1179;-54
2021/08/08 04:56:23;;;;;;;;;;;;;;;29.65;36.40;97014.50;5069732;28;1568;-53
2021/08/08 04:58:48;;;;;;;;;;;;;;;29.74;36.21;97008.22;5068637;28;1543;-54
2021/08/08 05:01:13;;;;;;;;;;;;;;;29.62;36.41;97011.31;5072092;28;1171;-53
2021/08/08 05:03:38;;;;;;;;;;;;;;;29.63;36.32;96999.72;5069709;28;1512;-53
2021/08/08 05:06:07;;;;;;;;;;;;;;;29.61;36.65;97001.69;5071153;28;1898;-53
2021/08/08 05:08:32;;;;;;;;;;;;;;;29.66;36.47;97002.88;5071009;28;1365;-53
2021/08/08 05:10:57;;;;;;;;;;;;;;;29.49;36.66;97001.13;5071076;28;1596;-53
2021/08/08 05:13:27;;;;;;;;;;;;;;;29.57;36.73;97003.00;5071555;28;1206;-53
2021/08/08 05:15:53;;;;;;;;;;;;;;;29.62;36.48;97006.84;5071136;28;1247;-53
2021/08/08 05:18:18;;;;;;;;;;;;;;;29.60;36.74;97006.16;5071249;28;1264;-53
2021/08/08 05:20:43;;;;;;;;;;;;;;;29.63;36.46;97016.50;5071175;28;1502;-52
2021/08/08 05:23:08;;;;;;;;;;;;;;;29.61;36.51;97017.63;5070156;28;1175;-53
2021/08/08 05:25:33;;;;;;;;;;;;;;;29.66;36.57;97016.16;5067600;28;1963;-51
2021/08/08 05:27:59;;;;;;;;;;;;;;;29.65;36.46;97027.78;5070053;28;1572;-53
2021/08/08 05:30:24;;;;;;;;;;;;;;;29.60;36.61;97030.09;5067038;28;1437;-51
2021/08/08 05:32:49;;;;;;;;;;;;;;;29.69;36.49;97036.25;5070631;28;1093;-55
2021/08/08 05:35:14;;;;;;;;;;;;;;;29.66;36.61;97024.13;5071553;28;1248;-54
2021/08/08 05:37:39;;;;;;;;;;;;;;;29.74;36.47;97033.97;5069709;28;1620;-53
2021/08/08 05:40:07;;;;;;;;;;;;;;;29.60;36.32;97042.53;5071304;28;1175;-53
2021/08/08 05:42:33;;;;;;;;;;;;;;;29.73;36.25;97038.47;5070134;28;1643;-53
2021/08/08 05:44:58;;;;;;;;;;;;;;;29.71;36.30;97037.78;5069805;28;1964;-54
2021/08/08 05:47:23;;;;;;;;;;;;;;;29.60;36.51;97037.22;5069097;28;1524;-53
2021/08/08 05:49:48;;;;;;;;;;;;;;;29.68;36.50;97035.44;5072370;28;1367;-53
2021/08/08 05:52:13;;;;;;;;;;;;;;;29.67;36.54;97038.25;5070006;28;1218;-53
2021/08/08 05:54:39;;;;;;;;;;;;;;;29.64;36.63;97028.78;5066164;28;1571;-53
2021/08/08 05:57:04;;;;;;;;;;;;;;;29.60;36.78;97031.91;5069023;28;1599;-53
2021/08/08 05:59:29;;;;;;;;;;;;;;;29.62;36.49;97037.88;5070244;28;1175;-53
2021/08/08 06:01:54;;;;;;;;;;;;;;;29.65;36.67;97041.09;5070209;28;1151;-52
2021/08/08 06:04:19;;;;;;;;;;;;;;;29.70;36.27;97043.25;5069591;28;1976;-52
2021/08/08 06:06:45;;;;;;;;;;;;;;;29.60;36.57;97048.69;5070319;28;1491;-53
2021/08/08 06:09:10;;;;;;;;;;;;;;;29.61;36.57;97047.69;5070853;28;1155;-53
2021/08/08 06:11:37;;;;;;;;;;;;;;;29.75;36.57;97051.59;5069942;28;1709;-52
2021/08/08 06:14:02;;;;;;;;;;;;;;;29.69;36.66;97054.88;5070203;28;1152;-54
2021/08/08 06:16:27;;;;;;;;;;;;;;;29.64;36.74;97052.72;5069276;28;1447;-53
2021/08/08 06:18:52;;;;;;;;;;;;;;;29.61;36.68;97052.19;5070806;28;1498;-53
2021/08/08 06:21:17;;;;;;;;;;;;;;;29.48;36.90;97052.59;5067505;28;1507;-53
2021/08/08 06:23:43;;;;;;;;;;;;;;;29.61;36.66;97054.84;5068933;28;1163;-52
2021/08/08 06:26:08;;;;;;;;;;;;;;;29.65;36.75;97056.19;5066839;28;1914;-53
2021/08/08 06:28:33;;;;;;;;;;;;;;;29.60;36.82;97058.47;5070884;28;1092;-53
2021/08/08 06:30:58;;;;;;;;;;;;;;;29.66;36.37;97061.34;5069512;28;1190;-53
2021/08/08 06:33:24;;;;;;;;;;;;;;;29.65;36.75;97062.34;5066653;28;1634;-52
2021/08/08 06:35:51;;;;;;;;;;;;;;;29.67;36.85;97070.97;5069763;28;1347;-53
2021/08/08 06:38:16;;;;;;;;;;;;;;;29.67;36.54;97057.69;5066867;28;1463;-53
2021/08/08 06:40:41;;;;;;;;;;;;;;;29.70;36.40;97059.19;5068727;28;1512;-54
2021/08/08 06:43:07;;;;;;;;;;;;;;;29.60;36.68;97059.31;5069835;28;1749;-53
2021/08/08 06:45:32;;;;;;;;;;;;;;;29.55;37.01;97064.28;5070248;28;1982;-53
2021/08/08 06:47:59;;;;;;;;;;;;;;;29.59;36.79;97068.28;5069058;28;1394;-53
2021/08/08 06:50:24;;;;;;;;;;;;;;;29.62;36.61;97067.94;5068532;28;1500;-53
2021/08/08 06:52:49;;;;;;;;;;;;;;;29.67;36.65;97072.81;5069069;28;1147;-53
2021/08/08 06:55:15;;;;;;;;;;;;;;;29.59;36.76;97080.75;5070341;28;1225;-53
2021/08/08 06:57:40;;;;;;;;;;;;;;;29.59;36.75;97081.56;5067255;28;1524;-53
2021/08/08 07:00:05;;;;;;;;;;;;;;;29.61;36.87;97084.06;5069831;28;1112;-53
2021/08/08 07:02:31;;;;;;;;;;;;;;;29.61;36.56;97084.06;5069221;28;1182;-53
2021/08/08 07:04:56;;;;;;;;;;;;;;;29.55;36.78;97084.72;5067639;28;1973;-53
2021/08/08 07:07:21;;;;;;;;;;;;;;;29.64;36.67;97089.06;5067924;28;1422;-53
2021/08/08 07:09:46;;;;;;;;;;;;;;;29.71;36.81;97092.78;5069067;28;1168;-53
2021/08/08 07:12:11;;;;;;;;;;;;;;;29.55;37.13;97096.19;5068446;28;1592;-53
2021/08/08 07:14:37;;;;;;;;;;;;;;;29.59;37.10;97094.84;5069702;28;1242;-53
2021/08/08 07:17:02;;;;;;;;;;;;;;;29.71;36.88;97098.09;5078273;22;1797;-54
2021/08/08 07:19:27;;;;;;;;;;;;;;;29.62;36.87;97094.53;5049163;28;1307;-57
2021/08/08 07:21:53;;;;;;;;;;;;;;;29.56;37.02;97094.34;5047408;28;1689;-56
2021/08/08 07:24:18;;;;;;;;;;;;;;;29.53;37.17;97099.97;5048627;28;1910;-56
2021/08/08 07:26:43;;;;;;;;;;;;;;;29.03;37.79;97104.06;5047028;28;1652;-55
2021/08/08 07:29:08;;;;;;;;;;;;;;;28.76;38.56;97097.03;5050596;28;1508;-55
2021/08/08 07:31:33;;;;;;;;;;;;;;;28.68;38.66;97098.78;5049309;28;1168;-56
2021/08/08 07:33:59;;;;;;;;;;;;;;;28.43;39.18;97103.81;5049322;28;1267;-55
2021/08/08 07:36:24;;;;;;;;;;;;;;;28.44;39.33;97102.84;5044135;28;1811;-56
2021/08/08 07:38:49;;;;;;;;;;;;;;;28.50;38.96;97101.38;5046446;28;1164;-56
2021/08/08 07:41:14;;;;;;;;;;;;;;;28.58;38.72;97104.94;5044183;28;1471;-57
2021/08/08 07:43:39;;;;;;;;;;;;;;;28.56;39.12;97106.09;5047202;28;1575;-56
2021/08/08 07:46:05;;;;;;;;;;;;;;;28.75;38.42;97094.50;5043231;28;1906;-57
2021/08/08 07:48:30;;;;;;;;;;;;;;;28.65;38.66;97094.56;5041291;28;1095;-56
2021/08/08 07:50:55;;;;;;;;;;;;;;;28.84;38.41;97098.91;5043523;28;1160;-56
2021/08/08 07:53:20;;;;;;;;;;;;;;;28.70;38.52;97094.97;5042980;28;1160;-56
2021/08/08 07:55:46;;;;;;;;;;;;;;;28.81;38.54;97099.19;5037243;28;1657;-52
2021/08/08 07:58:11;;;;;;;;;;;;;;;28.91;38.50;97092.88;5040945;28;1795;-57
2021/08/08 08:00:36;;;;;;;;;;;;;;;28.69;38.74;97108.38;5043404;28;1216;-57
2021/08/08 08:03:02;;;;;;;;;;;;;;;28.79;38.64;97107.31;5046665;28;1270;-57
2021/08/08 08:05:27;;;;;;;;;;;;;;;29.05;38.11;97112.72;5047691;28;1902;-57
2021/08/08 08:07:52;;;;;;;;;;;;;;;29.03;38.26;97106.72;5048434;28;1160;-57
2021/08/08 08:10:17;;;;;;;;;;;;;;;28.76;38.77;97114.75;5049344;28;1104;-56
2021/08/08 08:12:42;;;;;;;;;;;;;;;28.76;38.75;97112.94;5046572;28;1603;-57
2021/08/08 08:15:08;;;;;;;;;;;;;;;28.82;38.56;97111.47;5048280;28;1299;-56
2021/08/08 08:17:33;;;;;;;;;;;;;;;28.85;38.53;97114.69;5047796;28;1223;-55
2021/08/08 08:19:58;;;;;;;;;;;;;;;28.75;38.64;97115.72;5052311;28;1262;-55
2021/08/08 08:22:23;;;;;;;;;;;;;;;28.97;38.22;97114.47;5049038;28;1577;-56
2021/08/08 08:24:49;;;;;;;;;;;;;;;29.02;38.28;97113.03;5048570;28;1917;-56
2021/08/08 08:27:14;;;;;;;;;;;;;;;28.75;38.75;97113.06;5048671;28;1590;-56
2021/08/08 08:29:39;;;;;;;;;;;;;;;28.60;39.28;97108.31;5052756;28;1112;-56
2021/08/08 08:32:05;;;;;;;;;;;;;;;28.87;38.44;97106.56;5050936;28;1144;-56
2021/08/08 08:34:30;;;;;;;;;;;;;;;28.90;38.39;97100.97;5052769;28;1224;-55
2021/08/08 08:36:55;;;;;;;;;;;;;;;28.83;38.55;97100.69;5047318;28;1534;-56
2021/08/08 08:39:21;;;;;;;;;;;;;;;29.12;38.25;97099.66;5046856;28;1534;-55
2021/08/08 08:41:46;;;;;;;;;;;;;;;28.87;38.46;97099.44;5050038;28;1628;-56
2021/08/08 08:44:11;;;;;;;;;;;;;;;29.02;38.11;97099.75;5049755;28;1910;-54
2021/08/08 08:46:36;;;;;;;;;;;;;;;29.14;38.00;97097.66;5031956;28;1359;-55
2021/08/08 08:49:01;;;;;;;;;;;;;;;29.20;38.00;97097.88;5048712;28;1605;-57
2021/08/08 08:51:27;;;;;;;;;;;;;;;29.20;37.72;97099.72;5049252;28;1296;-55
2021/08/08 08:53:53;;;;;;;;;;;;;;;29.17;37.87;97100.88;5049209;28;1184;-54
2021/08/08 08:56:18;;;;;;;;;;;;;;;28.78;38.88;97095.03;5049690;28;1518;-57
2021/08/08 08:58:43;;;;;;;;;;;;;;;29.07;38.06;97086.00;5034428;28;1298;-56
2021/08/08 09:01:08;;;;;;;;;;;;;;;29.11;38.11;97088.19;5034148;28;1034;-56
2021/08/08 09:03:34;;;;;;;;;;;;;;;28.97;38.17;97088.75;5033324;28;1177;-56
2021/08/08 09:05:59;;;;;;;;;;;;;;;29.07;38.10;97092.16;5051639;28;1980;-56
2021/08/08 09:08:24;;;;;;;;;;;;;;;28.86;38.77;97097.75;5051806;28;1120;-57
2021/08/08 09:10:59;;;;;;;;;;;;;;;28.97;38.36;97094.06;5051622;28;1125;-57
2021/08/08 09:13:24;;;;;;;;;;;;;;;29.08;38.18;97095.66;5033268;28;1241;-55
2021/08/08 09:15:49;;;;;;;;;;;;;;;28.98;38.26;97089.56;5050519;28;1415;-56
2021/08/08 09:18:15;;;;;;;;;;;;;;;29.18;37.83;97089.25;5051854;28;1081;-56
2021/08/08 09:20:40;;;;;;;;;;;;;;;29.07;38.26;97093.97;5048147;28;1475;-56
2021/08/08 09:23:06;;;;;;;;;;;;;;;29.03;38.24;97090.78;5050519;28;1097;-54
2021/08/08 09:25:31;;;;;;;;;;;;;;;29.09;38.21;97087.53;5050220;28;1977;-56
2021/08/08 09:28:06;;;;;;;;;;;;;;;29.16;37.81;97088.59;5048869;28;1546;-57
2021/08/08 09:30:31;;;;;;;;;;;;;;;28.89;38.49;97083.34;5050471;28;1223;-56
2021/08/08 09:33:03;;;;;;;;;;;;;;;29.02;38.17;97085.66;5031730;28;1316;-56
2021/08/08 09:35:32;;;;;;;;;;;;;;;29.09;37.98;97089.34;5046491;28;1559;-57
2021/08/08 09:37:58;;;;;;;;;;;;;;;29.07;38.30;97105.44;5048324;28;1538;-56
2021/08/08 09:40:23;;;;;;;;;;;;;;;29.10;37.97;97104.28;5032262;28;1220;-52
2021/08/08 09:42:48;;;;;;;;;;;;;;;29.06;38.33;97102.91;5049752;28;1546;-55
2021/08/08 09:45:15;;;;;;;;;;;;;;;29.16;38.15;97112.47;5031064;28;1963;-57
2021/08/08 09:47:47;;;;;;;;;;;;;;;29.27;37.77;97108.72;5030725;28;1381;-54
2021/08/08 09:50:13;;;;;;;;;;;;;;;29.20;37.93;97105.03;5045750;28;1467;-55
2021/08/08 09:52:39;;;;;;;;;;;;;;;29.23;37.96;97106.53;5049486;28;1267;-55
2021/08/08 09:55:15;;;;;;;;;;;;;;;29.35;37.83;97098.16;5049832;28;1304;-54
2021/08/08 09:57:40;;;;;;;;;;;;;;;29.33;37.55;97094.00;5043978;28;1570;-57
2021/08/08 10:00:06;;;;;;;;;;;;;;;29.31;37.83;97094.16;5050551;28;1156;-57
2021/08/08 10:02:31;;;;;;;;;;;;;;;29.25;38.04;97102.75;5049481;28;1184;-57
2021/08/08 10:04:56;;;;;;;;;;;;;;;29.46;37.31;97091.75;5032590;28;1918;-55
2021/08/08 10:07:22;;;;;;;;;;;;;;;29.54;37.39;97105.09;5047446;28;1589;-58
2021/08/08 10:09:48;;;;;;;;;;;;;;;28.98;38.60;97097.53;5048513;28;1180;-60
2021/08/08 10:12:19;;;;;;;;;;;;;;;29.29;38.17;97101.44;5047680;28;1633;-57
2021/08/08 10:14:44;;;;;;;;;;;;;;;29.51;37.47;97097.47;5031071;28;1144;-56
2021/08/08 10:17:09;;;;;;;;;;;;;;;29.22;38.47;97097.72;5030710;28;1398;-59
2021/08/08 10:19:37;;;;;;;;;;;;;;;29.41;37.95;97097.53;5030244;28;1467;-60
2021/08/08 10:22:02;;;;;;;;;;;;;;;29.25;38.20;97094.78;5029174;28;1543;-59
2021/08/08 10:24:27;;;;;;;;;;;;;;;29.20;38.25;97091.75;5031093;28;1975;-59
2021/08/08 10:26:54;;;;;;;;;;;;;;;29.03;38.81;97097.94;5030363;28;1614;-60
2021/08/08 10:29:19;;;;;;;;;;;;;;;29.11;38.60;97098.81;5049634;28;1176;-60
2021/08/08 10:31:45;;;;;;;;;;;;;;;28.69;39.37;97084.50;5048824;28;1184;-59
2021/08/08 10:34:10;;;;;;;;;;;;;;;28.99;38.70;97099.22;5030375;28;1272;-59
2021/08/08 10:36:35;;;;;;;;;;;;;;;28.93;38.98;97095.38;5047765;28;1525;-56
2021/08/08 10:39:13;;;;;;;;;;;;;;;29.04;38.68;97097.78;5049365;28;1152;-58
2021/08/08 10:41:39;;;;;;;;;;;;;;;29.04;38.62;97097.78;5044946;28;1554;-57
2021/08/08 10:44:05;;;;;;;;;;;;;;;28.99;38.95;97093.91;5031106;28;1222;-56
2021/08/08 10:46:30;;;;;;;;;;;;;;;29.01;38.76;97102.56;5047281;28;1986;-55
2021/08/08 10:49:01;;;;;;;;;;;;;;;28.94;39.16;97098.84;5047077;28;1202;-56
2021/08/08 10:51:26;;;;;;;;;;;;;;;28.95;38.87;97096.03;5041483;28;1623;-59
2021/08/08 10:54:00;;;;;;;;;;;;;;;28.97;38.72;97094.06;5044892;28;1294;-56
2021/08/08 10:56:26;;;;;;;;;;;;;;;28.85;39.20;97100.56;5045139;28;1597;-57
2021/08/08 10:58:52;;;;;;;;;;;;;;;28.85;39.33;97097.91;5026894;28;1335;-58
2021/08/08 11:01:17;;;;;;;;;;;;;;;28.84;39.22;97093.59;5043626;28;1122;-56
2021/08/08 11:03:52;;;;;;;;;;;;;;;28.92;38.96;97091.88;5044458;28;1176;-58
2021/08/08 11:06:21;;;;;;;;;;;;;;;28.94;38.92;97086.41;5044372;28;1915;-58
2021/08/08 11:08:50;;;;;;;;;;;;;;;28.95;39.14;97084.59;5027235;28;1141;-57
2021/08/08 11:11:15;;;;;;;;;;;;;;;29.04;38.61;97075.69;5029634;28;1557;-56
2021/08/08 11:13:40;;;;;;;;;;;;;;;28.99;38.65;97077.97;5026913;28;1113;-56
2021/08/08 11:16:11;;;;;;;;;;;;;;;28.94;38.95;97082.94;5046190;28;1389;-56
2021/08/08 11:18:36;;;;;;;;;;;;;;;28.95;38.95;97076.63;5043527;28;1573;-58
2021/08/08 11:21:09;;;;;;;;;;;;;;;28.94;38.87;97082.94;5044858;28;1200;-56
2021/08/08 11:23:34;;;;;;;;;;;;;;;28.95;38.73;97081.94;5043367;28;1201;-56
2021/08/08 11:26:00;;;;;;;;;;;;;;;28.99;38.61;97076.16;5044487;28;1977;-58
2021/08/08 11:28:25;;;;;;;;;;;;;;;29.03;38.53;97082.00;5030405;28;1193;-57
2021/08/08 11:30:50;;;;;;;;;;;;;;;28.95;39.03;97084.59;5026426;28;1239;-57
2021/08/08 11:33:15;;;;;;;;;;;;;;;28.99;38.97;97081.47;5042547;28;1362;-58
2021/08/08 11:35:41;;;;;;;;;;;;;;;29.01;38.67;97073.38;5043793;28;1550;-57
2021/08/08 11:38:13;;;;;;;;;;;;;;;29.00;38.71;97077.84;5028177;28;1232;-58
2021/08/08 11:40:40;;;;;;;;;;;;;;;28.91;38.77;97079.59;5045437;28;1354;-57
2021/08/08 11:43:05;;;;;;;;;;;;;;;29.05;38.75;97083.50;5041658;28;1612;-56
2021/08/08 11:45:34;;;;;;;;;;;;;;;29.00;38.89;97091.13;5042168;28;1969;-58
2021/08/08 11:47:59;;;;;;;;;;;;;;;29.01;38.80;97079.50;5027391;28;1181;-59
2021/08/08 11:50:28;;;;;;;;;;;;;;;29.03;38.56;97072.22;5044962;28;1122;-58
2021/08/08 11:52:54;;;;;;;;;;;;;;;29.03;38.72;97071.38;5042975;28;1160;-56
2021/08/08 11:55:19;;;;;;;;;;;;;;;28.86;39.25;97073.03;5027119;28;1566;-58
2021/08/08 11:57:44;;;;;;;;;;;;;;;29.86;37.12;97072.59;5045842;28;1621;-57
2021/08/08 12:00:10;;;;;;;;;;;;;;;29.45;37.88;97074.97;5016760;28;1491;-58
2021/08/08 12:02:35;;;;;;;;;;;;;;;29.65;37.49;97072.13;5051139;28;1222;-59
2021/08/08 12:05:00;;;;;;;;;;;;;;;29.21;38.37;97072.16;5050983;28;1906;-58
2021/08/08 12:07:28;;;;;;;;;;;;;;;29.46;37.79;97073.97;5049828;28;1582;-58
2021/08/08 12:09:53;;;;;;;;;;;;;;;29.52;37.78;97085.84;5049456;28;1361;-59
2021/08/08 12:12:18;;;;;;;;;;;;;;;29.52;37.79;97082.34;5051827;28;1691;-59
2021/08/08 12:14:44;;;;;;;;;;;;;;;29.57;37.74;97091.53;5053259;28;1219;-59
2021/08/08 12:17:09;;;;;;;;;;;;;;;29.38;37.88;97089.88;5053178;28;1347;-57
2021/08/08 12:19:35;;;;;;;;;;;;;;;29.68;37.63;97085.94;5051420;28;1586;-60
2021/08/08 12:22:02;;;;;;;;;;;;;;;29.62;37.43;97091.03;5052708;28;1097;-62
2021/08/08 12:24:37;;;;;;;;;;;;;;;29.71;37.42;97085.63;5053070;28;1910;-60
2021/08/08 12:27:03;;;;;;;;;;;;;;;29.57;37.48;97086.22;5050409;28;1582;-60
2021/08/08 12:29:29;;;;;;;;;;;;;;;29.47;37.88;97088.97;5033690;28;1260;-59
2021/08/08 12:32:03;;;;;;;;;;;;;;;29.34;37.85;97080.56;5052316;28;1434;-57
2021/08/08 12:34:28;;;;;;;;;;;;;;;29.20;38.22;97078.47;5049264;28;1723;-58
2021/08/08 12:37:00;;;;;;;;;;;;;;;29.45;37.98;97082.94;5051942;28;1353;-58
2021/08/08 12:39:26;;;;;;;;;;;;;;;29.33;38.20;97078.06;5051329;28;1153;-59
2021/08/08 12:41:51;;;;;;;;;;;;;;;29.40;37.84;97084.44;5050201;28;1570;-56
2021/08/08 12:44:16;;;;;;;;;;;;;;;29.45;37.69;97084.78;5052351;28;1909;-58
2021/08/08 12:46:41;;;;;;;;;;;;;;;29.24;38.45;97093.13;5032412;28;1663;-58
2021/08/08 12:49:07;;;;;;;;;;;;;;;29.36;37.91;97097.16;5045932;28;1482;-57